sensor_id;sensor_type;location;lat;lon;timestamp;P1;durP1;ratioP1;P2;durP2;ratioP2
2035;SDS011;23642;42.658;23.350;2023-08-21T00:02:08;106.43;;;100.30;;
2035;SDS011;23642;42.658;23.350;2023-08-21T00:04:48;103.63;;;97.67;;
2035;SDS011;23642;42.658;23.350;2023-08-21T00:07:18;106.23;;;100.10;;
2035;SDS011;23642;42.658;23.350;2023-08-21T00:09:56;108.67;;;102.40;;
2035;SDS011;23642;42.658;23.350;2023-08-21T00:12:23;104.17;;;98.27;;
2035;SDS011;23642;42.658;23.350;2023-08-21T00:14:54;108.67;;;102.27;;
2035;SDS011;23642;42.658;23.350;2023-08-21T00:17:24;102.17;;;96.10;;
2035;SDS011;23642;42.658;23.350;2023-08-21T00:19:54;107.57;;;101.37;;
2035;SDS011;23642;42.658;23.350;2023-08-21T00:22:30;108.87;;;102.63;;
2035;SDS011;23642;42.658;23.350;2023-08-21T00:25:08;108.23;;;101.73;;
2035;SDS011;23642;42.658;23.350;2023-08-21T00:27:46;106.00;;;100.00;;
2035;SDS011;23642;42.658;23.350;2023-08-21T00:30:21;105.00;;;98.93;;
2035;SDS011;23642;42.658;23.350;2023-08-21T00:32:48;111.10;;;104.60;;
2035;SDS011;23642;42.658;23.350;2023-08-21T00:35:18;110.00;;;103.17;;
2035;SDS011;23642;42.658;23.350;2023-08-21T00:37:50;109.77;;;103.53;;
2035;SDS011;23642;42.658;23.350;2023-08-21T00:40:17;108.13;;;101.53;;
2035;SDS011;23642;42.658;23.350;2023-08-21T00:42:47;107.83;;;101.30;;
2035;SDS011;23642;42.658;23.350;2023-08-21T00:45:21;110.13;;;103.37;;
2035;SDS011;23642;42.658;23.350;2023-08-21T00:47:51;110.67;;;104.30;;
2035;SDS011;23642;42.658;23.350;2023-08-21T00:50:21;109.83;;;103.33;;
2035;SDS011;23642;42.658;23.350;2023-08-21T00:52:51;107.53;;;101.50;;
2035;SDS011;23642;42.658;23.350;2023-08-21T00:55:19;107.50;;;101.30;;
2035;SDS011;23642;42.658;23.350;2023-08-21T00:57:49;110.07;;;103.60;;
2035;SDS011;23642;42.658;23.350;2023-08-21T01:00:18;109.00;;;102.17;;
2035;SDS011;23642;42.658;23.350;2023-08-21T01:02:50;110.80;;;104.40;;
2035;SDS011;23642;42.658;23.350;2023-08-21T01:05:18;109.77;;;103.53;;
2035;SDS011;23642;42.658;23.350;2023-08-21T01:07:47;109.53;;;103.27;;
2035;SDS011;23642;42.658;23.350;2023-08-21T01:10:26;111.20;;;104.70;;
2035;SDS011;23642;42.658;23.350;2023-08-21T01:13:06;112.43;;;105.47;;
2035;SDS011;23642;42.658;23.350;2023-08-21T01:15:46;111.53;;;104.90;;
2035;SDS011;23642;42.658;23.350;2023-08-21T01:18:22;110.70;;;103.90;;
2035;SDS011;23642;42.658;23.350;2023-08-21T01:20:58;111.87;;;105.00;;
2035;SDS011;23642;42.658;23.350;2023-08-21T01:23:34;107.40;;;101.03;;
2035;SDS011;23642;42.658;23.350;2023-08-21T01:26:02;113.80;;;106.97;;
2035;SDS011;23642;42.658;23.350;2023-08-21T01:28:31;111.50;;;104.67;;
2035;SDS011;23642;42.658;23.350;2023-08-21T01:31:03;113.13;;;106.40;;
2035;SDS011;23642;42.658;23.350;2023-08-21T01:33:43;109.10;;;102.70;;
2035;SDS011;23642;42.658;23.350;2023-08-21T01:36:18;111.07;;;104.10;;
2035;SDS011;23642;42.658;23.350;2023-08-21T01:38:55;108.77;;;102.27;;
2035;SDS011;23642;42.658;23.350;2023-08-21T01:41:44;111.07;;;104.60;;
2035;SDS011;23642;42.658;23.350;2023-08-21T01:44:17;109.20;;;102.80;;
2035;SDS011;23642;42.658;23.350;2023-08-21T01:46:54;111.17;;;104.30;;
2035;SDS011;23642;42.658;23.350;2023-08-21T01:49:25;111.30;;;104.60;;
2035;SDS011;23642;42.658;23.350;2023-08-21T01:52:01;109.03;;;102.63;;
2035;SDS011;23642;42.658;23.350;2023-08-21T01:54:32;109.50;;;103.00;;
2035;SDS011;23642;42.658;23.350;2023-08-21T01:56:59;110.63;;;103.97;;
2035;SDS011;23642;42.658;23.350;2023-08-21T01:59:27;109.33;;;102.63;;
2035;SDS011;23642;42.658;23.350;2023-08-21T02:01:57;110.07;;;102.90;;
2035;SDS011;23642;42.658;23.350;2023-08-21T02:04:29;110.40;;;103.60;;
2035;SDS011;23642;42.658;23.350;2023-08-21T02:07:01;105.77;;;99.37;;
2035;SDS011;23642;42.658;23.350;2023-08-21T02:09:34;111.90;;;104.97;;
2035;SDS011;23642;42.658;23.350;2023-08-21T02:12:04;108.00;;;101.60;;
2035;SDS011;23642;42.658;23.350;2023-08-21T02:14:31;109.40;;;102.87;;
2035;SDS011;23642;42.658;23.350;2023-08-21T02:17:02;111.43;;;104.93;;
2035;SDS011;23642;42.658;23.350;2023-08-21T02:19:31;107.13;;;100.80;;
2035;SDS011;23642;42.658;23.350;2023-08-21T02:21:58;112.80;;;105.90;;
2035;SDS011;23642;42.658;23.350;2023-08-21T02:24:27;109.47;;;102.57;;
2035;SDS011;23642;42.658;23.350;2023-08-21T02:27:00;111.17;;;104.37;;
2035;SDS011;23642;42.658;23.350;2023-08-21T02:29:32;110.33;;;103.50;;
2035;SDS011;23642;42.658;23.350;2023-08-21T02:32:02;111.17;;;104.10;;
2035;SDS011;23642;42.658;23.350;2023-08-21T02:34:31;108.60;;;101.80;;
2035;SDS011;23642;42.658;23.350;2023-08-21T02:37:00;114.13;;;107.23;;
2035;SDS011;23642;42.658;23.350;2023-08-21T02:39:31;110.70;;;103.77;;
2035;SDS011;23642;42.658;23.350;2023-08-21T02:42:00;110.93;;;103.87;;
2035;SDS011;23642;42.658;23.350;2023-08-21T02:44:32;109.20;;;102.57;;
2035;SDS011;23642;42.658;23.350;2023-08-21T02:47:05;108.77;;;102.00;;
2035;SDS011;23642;42.658;23.350;2023-08-21T02:49:35;109.20;;;102.60;;
2035;SDS011;23642;42.658;23.350;2023-08-21T02:52:02;108.73;;;101.77;;
2035;SDS011;23642;42.658;23.350;2023-08-21T02:54:30;109.30;;;102.70;;
2035;SDS011;23642;42.658;23.350;2023-08-21T02:57:04;112.00;;;104.93;;
2035;SDS011;23642;42.658;23.350;2023-08-21T02:59:33;112.07;;;105.20;;
2035;SDS011;23642;42.658;23.350;2023-08-21T03:02:00;110.30;;;103.50;;
2035;SDS011;23642;42.658;23.350;2023-08-21T03:04:26;111.40;;;104.50;;
2035;SDS011;23642;42.658;23.350;2023-08-21T03:06:53;107.70;;;100.90;;
2035;SDS011;23642;42.658;23.350;2023-08-21T03:09:21;107.10;;;100.40;;
2035;SDS011;23642;42.658;23.350;2023-08-21T03:11:50;107.10;;;100.33;;
2035;SDS011;23642;42.658;23.350;2023-08-21T03:14:18;107.67;;;100.70;;
2035;SDS011;23642;42.658;23.350;2023-08-21T03:16:45;111.67;;;104.67;;
2035;SDS011;23642;42.658;23.350;2023-08-21T03:19:12;111.40;;;104.40;;
2035;SDS011;23642;42.658;23.350;2023-08-21T03:21:41;110.27;;;103.57;;
2035;SDS011;23642;42.658;23.350;2023-08-21T03:24:09;109.97;;;102.67;;
2035;SDS011;23642;42.658;23.350;2023-08-21T03:26:36;106.87;;;99.87;;
2035;SDS011;23642;42.658;23.350;2023-08-21T03:29:03;112.37;;;105.10;;
2035;SDS011;23642;42.658;23.350;2023-08-21T03:31:32;110.90;;;103.90;;
2035;SDS011;23642;42.658;23.350;2023-08-21T03:33:59;104.47;;;97.60;;
2035;SDS011;23642;42.658;23.350;2023-08-21T03:36:27;107.97;;;101.23;;
2035;SDS011;23642;42.658;23.350;2023-08-21T03:38:58;105.90;;;99.33;;
2035;SDS011;23642;42.658;23.350;2023-08-21T03:41:30;110.20;;;102.90;;
2035;SDS011;23642;42.658;23.350;2023-08-21T03:43:57;109.90;;;103.03;;
2035;SDS011;23642;42.658;23.350;2023-08-21T03:46:27;108.77;;;101.57;;
2035;SDS011;23642;42.658;23.350;2023-08-21T03:48:55;106.77;;;99.73;;
2035;SDS011;23642;42.658;23.350;2023-08-21T03:51:22;107.70;;;100.80;;
2035;SDS011;23642;42.658;23.350;2023-08-21T03:53:50;110.43;;;102.83;;
2035;SDS011;23642;42.658;23.350;2023-08-21T03:56:17;112.13;;;105.03;;
2035;SDS011;23642;42.658;23.350;2023-08-21T03:58:44;110.13;;;102.97;;
2035;SDS011;23642;42.658;23.350;2023-08-21T04:01:14;108.80;;;101.90;;
2035;SDS011;23642;42.658;23.350;2023-08-21T04:03:41;109.40;;;102.07;;
2035;SDS011;23642;42.658;23.350;2023-08-21T04:06:09;110.77;;;103.80;;
2035;SDS011;23642;42.658;23.350;2023-08-21T04:08:42;109.33;;;102.27;;
2035;SDS011;23642;42.658;23.350;2023-08-21T04:11:13;107.50;;;100.30;;
2035;SDS011;23642;42.658;23.350;2023-08-21T04:13:52;110.90;;;103.60;;
2035;SDS011;23642;42.658;23.350;2023-08-21T04:16:24;108.53;;;101.23;;
2035;SDS011;23642;42.658;23.350;2023-08-21T04:18:58;108.33;;;101.23;;
2035;SDS011;23642;42.658;23.350;2023-08-21T04:21:40;110.03;;;101.70;;
2035;SDS011;23642;42.658;23.350;2023-08-21T04:24:21;108.40;;;101.00;;
2035;SDS011;23642;42.658;23.350;2023-08-21T04:26:55;105.00;;;98.00;;
2035;SDS011;23642;42.658;23.350;2023-08-21T04:29:32;109.37;;;102.07;;
2035;SDS011;23642;42.658;23.350;2023-08-21T04:32:07;107.23;;;100.17;;
2035;SDS011;23642;42.658;23.350;2023-08-21T04:34:38;107.87;;;100.50;;
2035;SDS011;23642;42.658;23.350;2023-08-21T04:37:15;107.63;;;100.30;;
2035;SDS011;23642;42.658;23.350;2023-08-21T04:39:50;111.00;;;103.43;;
2035;SDS011;23642;42.658;23.350;2023-08-21T04:42:22;107.63;;;100.17;;
2035;SDS011;23642;42.658;23.350;2023-08-21T04:44:54;108.33;;;101.00;;
2035;SDS011;23642;42.658;23.350;2023-08-21T04:47:32;109.17;;;101.50;;
2035;SDS011;23642;42.658;23.350;2023-08-21T04:50:02;107.80;;;100.00;;
2035;SDS011;23642;42.658;23.350;2023-08-21T04:52:47;112.07;;;104.20;;
2035;SDS011;23642;42.658;23.350;2023-08-21T04:55:27;107.97;;;100.40;;
2035;SDS011;23642;42.658;23.350;2023-08-21T04:58:05;111.70;;;103.80;;
2035;SDS011;23642;42.658;23.350;2023-08-21T05:00:38;109.97;;;102.37;;
2035;SDS011;23642;42.658;23.350;2023-08-21T05:03:14;111.67;;;103.37;;
2035;SDS011;23642;42.658;23.350;2023-08-21T05:05:51;108.90;;;101.60;;
2035;SDS011;23642;42.658;23.350;2023-08-21T05:08:39;108.80;;;101.60;;
2035;SDS011;23642;42.658;23.350;2023-08-21T05:11:15;107.40;;;100.40;;
2035;SDS011;23642;42.658;23.350;2023-08-21T05:13:48;108.90;;;101.60;;
2035;SDS011;23642;42.658;23.350;2023-08-21T05:16:23;109.63;;;102.23;;
2035;SDS011;23642;42.658;23.350;2023-08-21T05:18:55;106.63;;;99.53;;
2035;SDS011;23642;42.658;23.350;2023-08-21T05:21:29;108.57;;;101.37;;
2035;SDS011;23642;42.658;23.350;2023-08-21T05:24:08;109.67;;;102.13;;
2035;SDS011;23642;42.658;23.350;2023-08-21T05:26:50;112.23;;;104.93;;
2035;SDS011;23642;42.658;23.350;2023-08-21T05:29:35;110.20;;;102.90;;
2035;SDS011;23642;42.658;23.350;2023-08-21T05:32:14;109.73;;;102.40;;
2035;SDS011;23642;42.658;23.350;2023-08-21T05:35:30;108.03;;;100.77;;
2035;SDS011;23642;42.658;23.350;2023-08-21T05:38:20;109.20;;;101.23;;
2035;SDS011;23642;42.658;23.350;2023-08-21T05:47:19;109.30;;;102.30;;
2035;SDS011;23642;42.658;23.350;2023-08-21T05:49:47;111.37;;;103.60;;
2035;SDS011;23642;42.658;23.350;2023-08-21T05:52:24;119.10;;;111.03;;
2035;SDS011;23642;42.658;23.350;2023-08-21T05:55:26;115.00;;;106.60;;
2035;SDS011;23642;42.658;23.350;2023-08-21T05:58:13;119.00;;;110.93;;
2035;SDS011;23642;42.658;23.350;2023-08-21T06:01:04;117.37;;;108.83;;
2035;SDS011;23642;42.658;23.350;2023-08-21T06:03:52;115.23;;;107.70;;
2035;SDS011;23642;42.658;23.350;2023-08-21T06:07:55;117.83;;;109.97;;
2035;SDS011;23642;42.658;23.350;2023-08-21T06:10:14;116.50;;;108.73;;
2035;SDS011;23642;42.658;23.350;2023-08-21T06:14:35;114.93;;;107.53;;
2035;SDS011;23642;42.658;23.350;2023-08-21T06:16:37;116.67;;;109.03;;
2035;SDS011;23642;42.658;23.350;2023-08-21T06:19:28;114.20;;;107.13;;
2035;SDS011;23642;42.658;23.350;2023-08-21T06:28:09;115.97;;;108.30;;
2035;SDS011;23642;42.658;23.350;2023-08-21T06:33:35;113.80;;;106.60;;
2035;SDS011;23642;42.658;23.350;2023-08-21T06:39:48;115.27;;;107.73;;
2035;SDS011;23642;42.658;23.350;2023-08-21T06:42:27;113.53;;;105.57;;
2035;SDS011;23642;42.658;23.350;2023-08-21T06:45:26;116.60;;;108.90;;
2035;SDS011;23642;42.658;23.350;2023-08-21T06:48:00;109.80;;;102.40;;
2035;SDS011;23642;42.658;23.350;2023-08-21T07:00:20;119.10;;;111.73;;
2035;SDS011;23642;42.658;23.350;2023-08-21T07:06:18;129.43;;;121.37;;
2035;SDS011;23642;42.658;23.350;2023-08-21T07:11:49;132.57;;;124.97;;
2035;SDS011;23642;42.658;23.350;2023-08-21T07:14:30;129.53;;;121.30;;
2035;SDS011;23642;42.658;23.350;2023-08-21T07:17:09;129.27;;;121.43;;
2035;SDS011;23642;42.658;23.350;2023-08-21T07:19:48;128.60;;;121.10;;
2035;SDS011;23642;42.658;23.350;2023-08-21T07:22:18;128.10;;;120.37;;
2035;SDS011;23642;42.658;23.350;2023-08-21T07:24:49;130.00;;;122.20;;
2035;SDS011;23642;42.658;23.350;2023-08-21T07:27:18;127.90;;;120.50;;
2035;SDS011;23642;42.658;23.350;2023-08-21T07:32:38;118.13;;;111.20;;
2035;SDS011;23642;42.658;23.350;2023-08-21T07:35:18;123.00;;;115.60;;
2035;SDS011;23642;42.658;23.350;2023-08-21T07:37:49;132.20;;;124.57;;
2035;SDS011;23642;42.658;23.350;2023-08-21T07:40:19;131.37;;;123.63;;
2035;SDS011;23642;42.658;23.350;2023-08-21T07:42:47;123.70;;;116.40;;
2035;SDS011;23642;42.658;23.350;2023-08-21T07:45:17;125.90;;;118.57;;
2035;SDS011;23642;42.658;23.350;2023-08-21T07:47:45;126.43;;;118.87;;
2035;SDS011;23642;42.658;23.350;2023-08-21T07:50:12;129.70;;;121.53;;
2035;SDS011;23642;42.658;23.350;2023-08-21T07:52:39;130.13;;;122.83;;
2035;SDS011;23642;42.658;23.350;2023-08-21T07:55:07;131.67;;;123.57;;
2035;SDS011;23642;42.658;23.350;2023-08-21T07:57:37;126.73;;;119.40;;
2035;SDS011;23642;42.658;23.350;2023-08-21T08:00:05;126.47;;;118.77;;
2035;SDS011;23642;42.658;23.350;2023-08-21T08:02:35;130.00;;;122.67;;
2035;SDS011;23642;42.658;23.350;2023-08-21T08:05:12;126.40;;;118.90;;
2035;SDS011;23642;42.658;23.350;2023-08-21T08:07:40;117.38;;;110.47;;
2035;SDS011;23642;42.658;23.350;2023-08-21T08:10:13;129.50;;;121.90;;
2035;SDS011;23642;42.658;23.350;2023-08-21T08:12:41;126.93;;;119.70;;
2035;SDS011;23642;42.658;23.350;2023-08-21T08:15:10;125.93;;;118.30;;
2035;SDS011;23642;42.658;23.350;2023-08-21T08:17:48;128.80;;;121.30;;
2035;SDS011;23642;42.658;23.350;2023-08-21T08:20:20;127.63;;;120.43;;
2035;SDS011;23642;42.658;23.350;2023-08-21T08:22:47;127.23;;;119.53;;
2035;SDS011;23642;42.658;23.350;2023-08-21T08:25:14;129.37;;;122.07;;
2035;SDS011;23642;42.658;23.350;2023-08-21T08:27:45;128.33;;;120.77;;
2035;SDS011;23642;42.658;23.350;2023-08-21T08:30:12;131.33;;;123.77;;
2035;SDS011;23642;42.658;23.350;2023-08-21T08:32:55;131.17;;;123.53;;
2035;SDS011;23642;42.658;23.350;2023-08-21T08:35:22;128.43;;;121.00;;
2035;SDS011;23642;42.658;23.350;2023-08-21T08:37:49;133.07;;;125.20;;
2035;SDS011;23642;42.658;23.350;2023-08-21T08:40:15;130.13;;;122.53;;
2035;SDS011;23642;42.658;23.350;2023-08-21T08:42:42;129.80;;;122.50;;
2035;SDS011;23642;42.658;23.350;2023-08-21T08:45:09;130.57;;;122.97;;
2035;SDS011;23642;42.658;23.350;2023-08-21T08:47:40;134.27;;;126.83;;
2035;SDS011;23642;42.658;23.350;2023-08-21T08:50:08;134.07;;;126.33;;
2035;SDS011;23642;42.658;23.350;2023-08-21T08:52:36;134.13;;;126.33;;
2035;SDS011;23642;42.658;23.350;2023-08-21T08:55:04;134.20;;;126.10;;
2035;SDS011;23642;42.658;23.350;2023-08-21T08:57:34;134.33;;;126.67;;
2035;SDS011;23642;42.658;23.350;2023-08-21T09:00:01;133.20;;;125.27;;
2035;SDS011;23642;42.658;23.350;2023-08-21T09:02:29;132.97;;;125.37;;
2035;SDS011;23642;42.658;23.350;2023-08-21T09:04:58;131.93;;;124.73;;
2035;SDS011;23642;42.658;23.350;2023-08-21T09:07:28;133.10;;;125.70;;
2035;SDS011;23642;42.658;23.350;2023-08-21T09:09:57;133.57;;;126.20;;
2035;SDS011;23642;42.658;23.350;2023-08-21T09:12:24;131.20;;;123.40;;
2035;SDS011;23642;42.658;23.350;2023-08-21T09:14:54;134.67;;;127.00;;
2035;SDS011;23642;42.658;23.350;2023-08-21T09:17:21;130.53;;;123.23;;
2035;SDS011;23642;42.658;23.350;2023-08-21T09:19:50;131.30;;;123.90;;
2035;SDS011;23642;42.658;23.350;2023-08-21T09:22:20;133.90;;;126.40;;
2035;SDS011;23642;42.658;23.350;2023-08-21T09:25:01;130.07;;;122.47;;
2035;SDS011;23642;42.658;23.350;2023-08-21T09:27:34;134.43;;;126.67;;
2035;SDS011;23642;42.658;23.350;2023-08-21T09:30:05;132.70;;;125.00;;
2035;SDS011;23642;42.658;23.350;2023-08-21T09:32:35;132.80;;;125.27;;
2035;SDS011;23642;42.658;23.350;2023-08-21T09:35:21;133.50;;;125.20;;
2035;SDS011;23642;42.658;23.350;2023-08-21T09:37:50;131.87;;;124.07;;
2035;SDS011;23642;42.658;23.350;2023-08-21T09:40:19;133.57;;;125.67;;
2035;SDS011;23642;42.658;23.350;2023-08-21T09:42:51;131.90;;;124.10;;
2035;SDS011;23642;42.658;23.350;2023-08-21T09:45:20;133.00;;;125.70;;
2035;SDS011;23642;42.658;23.350;2023-08-21T09:47:55;132.07;;;124.23;;
2035;SDS011;23642;42.658;23.350;2023-08-21T09:50:23;132.40;;;125.00;;
2035;SDS011;23642;42.658;23.350;2023-08-21T09:52:58;129.57;;;122.27;;
2035;SDS011;23642;42.658;23.350;2023-08-21T09:55:30;132.30;;;125.00;;
2035;SDS011;23642;42.658;23.350;2023-08-21T09:57:58;133.73;;;125.90;;
2035;SDS011;23642;42.658;23.350;2023-08-21T10:00:29;130.30;;;123.00;;
2035;SDS011;23642;42.658;23.350;2023-08-21T10:02:59;131.87;;;124.57;;
2035;SDS011;23642;42.658;23.350;2023-08-21T10:05:28;131.27;;;123.90;;
2035;SDS011;23642;42.658;23.350;2023-08-21T10:07:56;132.90;;;125.27;;
2035;SDS011;23642;42.658;23.350;2023-08-21T10:10:30;133.27;;;125.50;;
2035;SDS011;23642;42.658;23.350;2023-08-21T10:13:00;133.37;;;125.47;;
2035;SDS011;23642;42.658;23.350;2023-08-21T10:15:28;132.20;;;124.73;;
2035;SDS011;23642;42.658;23.350;2023-08-21T10:17:57;131.03;;;123.20;;
2035;SDS011;23642;42.658;23.350;2023-08-21T10:20:25;129.43;;;121.93;;
2035;SDS011;23642;42.658;23.350;2023-08-21T10:22:52;133.53;;;126.03;;
2035;SDS011;23642;42.658;23.350;2023-08-21T10:25:20;135.80;;;127.50;;
2035;SDS011;23642;42.658;23.350;2023-08-21T10:27:53;131.47;;;123.97;;
2035;SDS011;23642;42.658;23.350;2023-08-21T10:30:21;132.80;;;124.77;;
2035;SDS011;23642;42.658;23.350;2023-08-21T10:32:52;132.23;;;124.80;;
2035;SDS011;23642;42.658;23.350;2023-08-21T10:35:20;133.30;;;125.30;;
2035;SDS011;23642;42.658;23.350;2023-08-21T10:40:38;133.43;;;125.50;;
2035;SDS011;23642;42.658;23.350;2023-08-21T10:46:06;136.03;;;128.03;;
2035;SDS011;23642;42.658;23.350;2023-08-21T10:48:34;135.93;;;128.23;;
2035;SDS011;23642;42.658;23.350;2023-08-21T10:51:01;136.17;;;128.53;;
2035;SDS011;23642;42.658;23.350;2023-08-21T10:53:36;134.43;;;127.03;;
2035;SDS011;23642;42.658;23.350;2023-08-21T10:56:05;135.17;;;127.53;;
2035;SDS011;23642;42.658;23.350;2023-08-21T10:58:40;136.87;;;128.63;;
2035;SDS011;23642;42.658;23.350;2023-08-21T11:01:12;138.00;;;130.30;;
2035;SDS011;23642;42.658;23.350;2023-08-21T11:03:39;138.40;;;130.30;;
2035;SDS011;23642;42.658;23.350;2023-08-21T11:06:06;141.30;;;133.07;;
2035;SDS011;23642;42.658;23.350;2023-08-21T11:08:39;141.03;;;132.70;;
2035;SDS011;23642;42.658;23.350;2023-08-21T11:11:09;141.30;;;132.47;;
2035;SDS011;23642;42.658;23.350;2023-08-21T11:13:53;138.47;;;130.77;;
2035;SDS011;23642;42.658;23.350;2023-08-21T11:17:08;140.27;;;132.23;;
2035;SDS011;23642;42.658;23.350;2023-08-21T11:19:20;139.70;;;131.90;;
2035;SDS011;23642;42.658;23.350;2023-08-21T11:21:50;141.70;;;132.97;;
2035;SDS011;23642;42.658;23.350;2023-08-21T11:24:17;136.93;;;129.20;;
2035;SDS011;23642;42.658;23.350;2023-08-21T11:26:55;139.80;;;132.00;;
2035;SDS011;23642;42.658;23.350;2023-08-21T11:29:23;136.23;;;128.13;;
2035;SDS011;23642;42.658;23.350;2023-08-21T11:31:51;139.13;;;130.77;;
2035;SDS011;23642;42.658;23.350;2023-08-21T11:34:18;137.90;;;130.10;;
2035;SDS011;23642;42.658;23.350;2023-08-21T11:36:46;134.23;;;126.63;;
2035;SDS011;23642;42.658;23.350;2023-08-21T11:39:13;134.53;;;126.93;;
2035;SDS011;23642;42.658;23.350;2023-08-21T11:41:52;133.27;;;125.40;;
2035;SDS011;23642;42.658;23.350;2023-08-21T11:44:19;132.33;;;124.90;;
2035;SDS011;23642;42.658;23.350;2023-08-21T11:46:48;133.33;;;125.67;;
2035;SDS011;23642;42.658;23.350;2023-08-21T11:49:17;134.93;;;127.10;;
2035;SDS011;23642;42.658;23.350;2023-08-21T11:51:47;134.37;;;126.77;;
2035;SDS011;23642;42.658;23.350;2023-08-21T11:54:17;132.57;;;125.00;;
2035;SDS011;23642;42.658;23.350;2023-08-21T11:56:46;132.53;;;125.23;;
2035;SDS011;23642;42.658;23.350;2023-08-21T11:59:21;132.67;;;125.17;;
2035;SDS011;23642;42.658;23.350;2023-08-21T12:01:51;134.83;;;127.53;;
2035;SDS011;23642;42.658;23.350;2023-08-21T12:04:18;135.67;;;126.80;;
2035;SDS011;23642;42.658;23.350;2023-08-21T12:06:45;134.47;;;127.00;;
2035;SDS011;23642;42.658;23.350;2023-08-21T12:09:12;132.83;;;125.40;;
2035;SDS011;23642;42.658;23.350;2023-08-21T12:11:39;134.53;;;126.93;;
2035;SDS011;23642;42.658;23.350;2023-08-21T12:14:06;124.97;;;117.87;;
2035;SDS011;23642;42.658;23.350;2023-08-21T12:16:33;125.37;;;117.80;;
2035;SDS011;23642;42.658;23.350;2023-08-21T12:19:03;124.57;;;117.57;;
2035;SDS011;23642;42.658;23.350;2023-08-21T12:21:37;124.57;;;117.37;;
2035;SDS011;23642;42.658;23.350;2023-08-21T12:24:04;124.70;;;117.60;;
2035;SDS011;23642;42.658;23.350;2023-08-21T12:26:32;122.47;;;115.43;;
2035;SDS011;23642;42.658;23.350;2023-08-21T12:29:00;122.70;;;115.67;;
2035;SDS011;23642;42.658;23.350;2023-08-21T12:31:28;124.53;;;116.70;;
2035;SDS011;23642;42.658;23.350;2023-08-21T12:33:56;124.20;;;116.57;;
2035;SDS011;23642;42.658;23.350;2023-08-21T12:36:37;123.60;;;116.43;;
2035;SDS011;23642;42.658;23.350;2023-08-21T12:39:16;125.07;;;117.60;;
2035;SDS011;23642;42.658;23.350;2023-08-21T12:41:45;124.80;;;117.30;;
2035;SDS011;23642;42.658;23.350;2023-08-21T12:44:27;119.00;;;111.90;;
2035;SDS011;23642;42.658;23.350;2023-08-21T12:46:56;122.07;;;115.00;;
2035;SDS011;23642;42.658;23.350;2023-08-21T12:49:23;123.50;;;116.10;;
2035;SDS011;23642;42.658;23.350;2023-08-21T12:51:52;123.57;;;116.57;;
2035;SDS011;23642;42.658;23.350;2023-08-21T12:54:23;125.20;;;117.43;;
2035;SDS011;23642;42.658;23.350;2023-08-21T12:56:50;124.57;;;117.07;;
2035;SDS011;23642;42.658;23.350;2023-08-21T12:59:16;122.17;;;115.17;;
2035;SDS011;23642;42.658;23.350;2023-08-21T13:01:43;119.17;;;112.07;;
2035;SDS011;23642;42.658;23.350;2023-08-21T13:04:30;124.73;;;117.20;;
2035;SDS011;23642;42.658;23.350;2023-08-21T13:06:58;121.30;;;113.80;;
2035;SDS011;23642;42.658;23.350;2023-08-21T13:09:28;124.60;;;117.47;;
2035;SDS011;23642;42.658;23.350;2023-08-21T13:11:55;123.13;;;115.70;;
2035;SDS011;23642;42.658;23.350;2023-08-21T13:14:22;122.23;;;114.70;;
2035;SDS011;23642;42.658;23.350;2023-08-21T13:16:49;122.77;;;115.67;;
2035;SDS011;23642;42.658;23.350;2023-08-21T13:19:16;123.47;;;116.47;;
2035;SDS011;23642;42.658;23.350;2023-08-21T13:21:43;124.77;;;117.07;;
2035;SDS011;23642;42.658;23.350;2023-08-21T13:24:14;123.20;;;115.87;;
2035;SDS011;23642;42.658;23.350;2023-08-21T13:26:59;122.40;;;115.40;;
2035;SDS011;23642;42.658;23.350;2023-08-21T13:29:26;120.93;;;113.90;;
2035;SDS011;23642;42.658;23.350;2023-08-21T13:31:53;121.03;;;114.03;;
2035;SDS011;23642;42.658;23.350;2023-08-21T13:34:20;124.20;;;116.97;;
2035;SDS011;23642;42.658;23.350;2023-08-21T13:36:57;124.27;;;117.17;;
2035;SDS011;23642;42.658;23.350;2023-08-21T13:39:28;125.37;;;118.27;;
2035;SDS011;23642;42.658;23.350;2023-08-21T13:41:57;121.60;;;114.70;;
2035;SDS011;23642;42.658;23.350;2023-08-21T13:44:28;124.17;;;117.17;;
2035;SDS011;23642;42.658;23.350;2023-08-21T13:46:57;127.57;;;120.13;;
2035;SDS011;23642;42.658;23.350;2023-08-21T13:49:24;123.53;;;116.63;;
2035;SDS011;23642;42.658;23.350;2023-08-21T13:51:56;127.03;;;119.67;;
2035;SDS011;23642;42.658;23.350;2023-08-21T13:54:34;125.83;;;117.93;;
2035;SDS011;23642;42.658;23.350;2023-08-21T13:57:01;123.50;;;116.33;;
2035;SDS011;23642;42.658;23.350;2023-08-21T13:59:28;126.17;;;118.27;;
2035;SDS011;23642;42.658;23.350;2023-08-21T14:01:55;126.60;;;118.93;;
2035;SDS011;23642;42.658;23.350;2023-08-21T14:04:22;124.90;;;117.87;;
2035;SDS011;23642;42.658;23.350;2023-08-21T14:06:49;124.80;;;117.70;;
2035;SDS011;23642;42.658;23.350;2023-08-21T14:09:16;125.73;;;118.20;;
2035;SDS011;23642;42.658;23.350;2023-08-21T14:11:49;124.47;;;117.47;;
2035;SDS011;23642;42.658;23.350;2023-08-21T14:14:16;124.93;;;117.83;;
2035;SDS011;23642;42.658;23.350;2023-08-21T14:16:43;124.73;;;117.63;;
2035;SDS011;23642;42.658;23.350;2023-08-21T14:19:13;125.43;;;118.43;;
2035;SDS011;23642;42.658;23.350;2023-08-21T14:21:40;124.00;;;116.80;;
2035;SDS011;23642;42.658;23.350;2023-08-21T14:24:08;123.30;;;115.90;;
2035;SDS011;23642;42.658;23.350;2023-08-21T14:26:37;124.80;;;117.20;;
2035;SDS011;23642;42.658;23.350;2023-08-21T14:29:09;123.50;;;116.50;;
2035;SDS011;23642;42.658;23.350;2023-08-21T14:31:36;122.73;;;115.27;;
2035;SDS011;23642;42.658;23.350;2023-08-21T14:34:04;122.57;;;115.50;;
2035;SDS011;23642;42.658;23.350;2023-08-21T14:36:33;125.07;;;117.73;;
2035;SDS011;23642;42.658;23.350;2023-08-21T14:39:00;125.97;;;118.90;;
2035;SDS011;23642;42.658;23.350;2023-08-21T14:41:29;126.47;;;118.93;;
2035;SDS011;23642;42.658;23.350;2023-08-21T14:43:58;122.03;;;115.00;;
2035;SDS011;23642;42.658;23.350;2023-08-21T14:46:27;126.33;;;118.80;;
2035;SDS011;23642;42.658;23.350;2023-08-21T14:48:53;124.90;;;117.90;;
2035;SDS011;23642;42.658;23.350;2023-08-21T14:51:20;125.17;;;117.53;;
2035;SDS011;23642;42.658;23.350;2023-08-21T14:53:47;123.07;;;116.03;;
2035;SDS011;23642;42.658;23.350;2023-08-21T14:56:18;125.47;;;118.37;;
2035;SDS011;23642;42.658;23.350;2023-08-21T14:58:45;126.00;;;118.47;;
2035;SDS011;23642;42.658;23.350;2023-08-21T15:01:16;124.33;;;117.33;;
2035;SDS011;23642;42.658;23.350;2023-08-21T15:03:47;126.77;;;119.63;;
2035;SDS011;23642;42.658;23.350;2023-08-21T15:06:14;126.00;;;118.90;;
2035;SDS011;23642;42.658;23.350;2023-08-21T15:08:41;118.43;;;111.13;;